MyTimes logo

TIMES

Webb Imagery

1/02/2014
Channel Challenge
550m Swim / 2.0km Run

(Click on competitor name to view personalised results)

Name
Race #
Category
Time
(h:mm:ss)
Avg Speed
km/hr
OAll
Place
Cat
Place
KIBBY Mitchell#128Senior Male0:11:26"13.4 " 11
DRAKE Jeremy#71Senior Male0:11:30"13.3 " 22
BUSCHKUEHL Nathan#40Senior Male0:11:34"13.2 " 33
ANDERSON Ben#127Senior Male0:11:53"12.9 " 44
RHODES Jamie#135Senior Male0:12:06"12.6 " 55
FORD Brenton#125Senior Male0:12:17"12.5 " 66
MCGUIRE Michael#680Junior Male0:12:32"12.2 " 71
PLANT Luke#139Senior Male0:12:53"11.9 " 87
DEVESON Grace#338Senior Female0:13:02"11.7 " 91
ROCHE Eddy#130Senior Male0:13:04"11.7 " 108
BUTT Chloe#318Senior Female0:13:13"11.6 " 112
WILLIAMS Max#675Junior Male0:13:21"11.5 " 122
WALPOLE Stuart#172Senior Male0:13:25"11.4 " 139
WILDES Adam#672Junior Male0:13:28"11.4 " 143
ROWE Mark#56Senior Male0:13:30"11.3 " 1510
VAN AGTMAAL Bevan#140Senior Male0:13:46"11.1 " 1611
WACHTER Aurel#62240-49 Male0:13:47"11.1 " 171
DISTON Ashlee#431Junior Female0:13:53"11.0 " 181
ARMSTRONG Emma#307Senior Female0:13:54"11.0 " 193
HENDRICKS Vaughn#159Senior Male0:13:55"11.0 " 2012
HARRISON Hamish#22Senior Male0:13:55"11.0 " 2113
COOTE Jackson#121Senior Male0:13:58"11.0 " 2214
GOWAN Mike#46Senior Male0:14:00"10.9 " 2315
FLEISNER Rob#689Male 50+0:14:03"10.9 " 241
LEWIS Mitch#161Senior Male0:14:17"10.7 " 2516
CORBETT Jim#69940-49 Male0:14:18"10.7 " 262
JENNER Steven#119Senior Male0:14:27"10.6 " 2717
HETERBRAEG Andre#90Senior Male0:14:29"10.6 " 2818
FYFIELD Sally#333Senior Female0:14:29"10.6 " 294
SULLIVAN Matthew#11Senior Male0:14:31"10.5 " 3019
HOLUB Taylor#134Senior Male0:14:35"10.5 " 3120
SHAHTAHMASEBI Roxanne#460Senior Female0:14:37"10.5 " 325
JUDD Alex#70Senior Male0:14:40"10.4 " 3321
TILLEY Justin#103Senior Male0:14:46"10.4 " 3422
CAVANAGH Daniel#69Senior Male0:14:48"10.3 " 3523
SMITH Ryan#122Senior Male0:14:49"10.3 " 3624
ELLIS Chris#60Senior Male0:14:53"10.3 " 3725
BAXTER Clinton#61440-49 Male0:14:56"10.2 " 383
GALBRAITH Dana#750Male 50+0:14:57"10.2 " 392
WALLACE Tim#82Senior Male0:14:59"10.2 " 4026
WILLIAMS Jack#676Junior Male0:15:02"10.2 " 414
LUCAS Aaron#683Junior Male0:15:02"10.2 " 425
MATTHEWS Jack#89Senior Male0:15:04"10.2 " 4327
MAGANN Jarrod#101Senior Male0:15:05"10.1 " 4428
O'DONNELL Mark#21Senior Male0:15:07"10.1 " 4529
MURPHY Jack#73Senior Male0:15:07"10.1 " 4630
HANLEY Philip#658Male 50+0:15:10"10.1 " 473
BONDARENKO-EDWA Aleksei#23Senior Male0:15:18"10.0 " 4831
SORAKI Jackson#115Senior Male0:15:21"10.0 " 4932
TURNER Georgia#394Junior Female0:15:24"9.9 " 502
DISTON Mitchell#713Junior Male0:15:26"9.9 " 516
MCLENNAN Rhett#57Senior Male0:15:27"9.9 " 5233
BOND Marcus#38Senior Male0:15:28"9.9 " 5334
WILKINS Darren#169Senior Male0:15:32"9.8 " 5435
DESSENT Tiger#63040-49 Male0:15:37"9.8 " 554
STREETKIRK Jack#123Senior Male0:15:38"9.8 " 5636
HUMPHRIS Stephen#55Senior Male0:15:38"9.8 " 5737
KENT Lucas#112Senior Male0:15:39"9.8 " 5838
HAMILTON Duncan#162Senior Male0:15:43"9.7 " 5939
HUGHES Xavier#727Junior Male0:15:45"9.7 " 607
BEHRSIN Brianna#419Junior Female0:15:46"9.7 " 613
WHITE Cameron#32Senior Male0:15:48"9.7 " 6240
FISHER Surrey#679Junior Male0:15:49"9.7 " 638
LUMSDEN Kai#726Junior Male0:15:50"9.7 " 649
EDWARDS Molly#395Junior Female0:15:55"9.6 " 654
O'HALLORAN Nick#143Senior Male0:15:58"9.6 " 6641
O'BIREN Shannon#150Senior Male0:15:58"9.6 " 6742
LOWE Marcus#29Senior Male0:15:58"9.6 " 6843
ONLEY Thomas#87Senior Male0:16:00"9.6 " 6944
WALDRON Matthew#163Senior Male0:16:02"9.5 " 7045
ADAMS James#58Senior Male0:16:03"9.5 " 7146
MC DONALD Angus#152Senior Male0:16:06"9.5 " 7247
BENDTSEN Katrina#319Senior Female0:16:06"9.5 " 736
MURPHY Victor#84Senior Male0:16:09"9.5 " 7448
TILLEY Derryn#149Senior Male0:16:11"9.5 " 7549
TURNER Peter#649Male 50+0:16:12"9.4 " 764
PEARCE Heath#102Senior Male0:16:19"9.4 " 7750
ADAMS Jarrod#73540-49 Male0:16:19"9.4 " 785
VAUX Benjamin#109Senior Male0:16:26"9.3 " 7951
STINEAR Tim#61940-49 Male0:16:27"9.3 " 806
PRYOR Anthony#53Senior Male0:16:28"9.3 " 8152
WILKINS Shaun#168Senior Male0:16:30"9.3 " 8253
QUIRK Ben#160Senior Male0:16:30"9.3 " 8354
NICHOLSON James#28Senior Male0:16:32"9.3 " 8455
BEHRSIN John#693Male 50+0:16:32"9.3 " 855
CUTTIFORD Tim#120Senior Male0:16:34"9.2 " 8656
LEA Michael#108Senior Male0:16:35"9.2 " 8757
SLAVIN Gavin#63140-49 Male0:16:39"9.2 " 887
MINTER Kris#75Senior Male0:16:46"9.1 " 8958
MURPHY Justin#153Senior Male0:16:47"9.1 " 9059
PULLAR Mike#70940-49 Male0:16:51"9.1 " 918
THWAITES Jack#47Senior Male0:16:52"9.1 " 9260
MAHON Debbi#428Senior Female0:16:54"9.1 " 937
HARRIS Kris#61640-49 Male0:16:55"9.0 " 949
DALLINGER Chris#155Senior Male0:16:56"9.0 " 9561
MUMMERY Glenn#138Senior Male0:16:57"9.0 " 9662
JONES Joel#43Senior Male0:16:58"9.0 " 9763
MILLER Todd#66Senior Male0:16:59"9.0 " 9864
CHISHOLM Andy#63840-49 Male0:16:59"9.0 " 9910
TESTER Jarrod#124Senior Male0:17:00"9.0 " 10065
HARBINSON Yvette#329Senior Female0:17:03"9.0 " 1018
THWAITES Karl#660Male 50+0:17:04"9.0 " 1026
BUXTON Corey#62Senior Male0:17:05"9.0 " 10366
ANDREOLA Declan#731Junior Male0:17:05"9.0 " 10410
BAXTER Craig#45Senior Male0:17:06"8.9 " 10567
THOMAS Brodie#146Senior Male0:17:07"8.9 " 10668
IRWIN Alexa#439Senior Female0:17:08"8.9 " 1079
PEZZIMENTI Fred#661Male 50+0:17:10"8.9 " 1087
HERBERT Duncan#62640-49 Male0:17:11"8.9 " 10911
WILD Darren#70740-49 Male0:17:11"8.9 " 11012
DODDS Mitch#681Junior Male0:17:15"8.9 " 11111
MUSGRAVE Nick#63740-49 Male0:17:17"8.9 " 11213
OLSEN Andrea#41740-49 Female0:17:23"8.8 " 1131
BILLINGTON Naomi#35740-49 Female0:17:25"8.8 " 1142
FISHER Kevin#669Male 50+0:17:25"8.8 " 1158
MURPHY Gary#10Senior Male0:17:26"8.8 " 11669
CICCONE Joseph#148Senior Male0:17:27"8.8 " 11770
KAYE-HELMOT Georgia#453Senior Female0:17:27"8.8 " 11810
SMITH Aaron#30Senior Male0:17:28"8.8 " 11971
POULTON Andrew#73440-49 Male0:17:28"8.8 " 12014
BURT Melissa#443Senior Female0:17:28"8.8 " 12111
BELL Ash#463Senior Female0:17:32"8.7 " 12212
DAFF Kris#52Senior Male0:17:33"8.7 " 12372
BODLEY Matthew#165Senior Male0:17:33"8.7 " 12473
ECCLES Edward#64Senior Male0:17:37"8.7 " 12574
TEHENNEPE Luke#54Senior Male0:17:39"8.7 " 12675
GUPPY Joshua#113Senior Male0:17:43"8.6 " 12776
FINNIS Matthew#33Senior Male0:17:43"8.6 " 12877
TURNER Olivia#400Junior Female0:17:44"8.6 " 1295
MORRISON Mark#62440-49 Male0:17:48"8.6 " 13015
MARSHALL Luke#137Senior Male0:17:50"8.6 " 13178
TOOHEY Bart#79Senior Male0:17:51"8.6 " 13279
CURTIS Yarran#145Senior Male0:17:52"8.6 " 13380
PARKER Glen#170Senior Male0:17:55"8.5 " 13481
CAMPBELL Daniel#151Senior Male0:17:55"8.5 " 13582
TAYLOR Jack#708Junior Male0:17:55"8.5 " 13612
JONES Mark#74140-49 Male0:17:55"8.5 " 13716
ANTHONY Max#15Senior Male0:17:59"8.5 " 13883
JONES Zachary#147Senior Male0:18:00"8.5 " 13984
WATSON Russell#73040-49 Male0:18:00"8.5 " 14017
NGUYEN Paige#398Junior Female0:18:02"8.5 " 1416
WHITLA James#61840-49 Male0:18:02"8.5 " 14218
BARRY Bill#13Senior Male0:18:03"8.5 " 14385
WRIGHT Matthew#133Senior Male0:18:08"8.4 " 14486
TRANTER Andrew#93Senior Male0:18:12"8.4 " 14587
HOLMES Scott#68Senior Male0:18:14"8.4 " 14688
HAYNE Rodney#49Senior Male0:18:18"8.4 " 14789
TIMMINS Austin#744Junior Male0:18:18"8.4 " 14813
MOSELEY Tessa#339Senior Female0:18:19"8.4 " 14913
THOMAS Jeremy#36Senior Male0:18:20"8.3 " 15090
FLEISNER Ben#42Senior Male0:18:20"8.3 " 15191
ABLETT Zac#67Senior Male0:18:20"8.3 " 15292
ROBERTSON Lauren#406Junior Female0:18:20"8.3 " 1537
FRASER Jodie#429Senior Female0:18:22"8.3 " 15414
STINEAR Gabrielle#402Junior Female0:18:23"8.3 " 1558
VANDERZWET Michael#69640-49 Male0:18:26"8.3 " 15619
DAFF Geoff#666Male 50+0:18:27"8.3 " 1579
WHITE Elliot#88Senior Male0:18:28"8.3 " 15893
WILLIAMS Stephen#34Senior Male0:18:29"8.3 " 15994
HINKLEY Paul#677Junior Male0:18:30"8.3 " 16014
DISTON Morton#712Male 50+0:18:31"8.3 " 16110
GOLDIE Tony#72440-49 Male0:18:33"8.2 " 16220
BARLEY Shay#337Senior Female0:18:37"8.2 " 16315
PRYOR Bridget#335Senior Female0:18:40"8.2 " 16416
LAMB Simon#142Senior Male0:18:43"8.2 " 16595
HUMBERT Cara#326Senior Female0:18:43"8.2 " 16617
JUDD Gary#710Male 50+0:18:43"8.2 " 16711
WEBBER Chris#753Junior Male0:18:46"8.2 " 16815
SCICLUNA Todd#85Senior Male0:18:47"8.1 " 16996
STEET Ward#71940-49 Male0:18:47"8.1 " 17021
TUFF Stephen#96Senior Male0:18:48"8.1 " 17197
VERNON Tye#131Senior Male0:18:48"8.1 " 17298
WELTZER David#106Senior Male0:18:51"8.1 " 17399
JOHNSTONE Chris#71140-49 Male0:18:51"8.1 " 17422
CRAWFORD Justin#48Senior Male0:18:52"8.1 " 175100
BERRY Tim#100Senior Male0:18:53"8.1 " 176101
DIEDRICH Glenn#81Senior Male0:18:55"8.1 " 177102
BORN Daniel#26Senior Male0:18:55"8.1 " 178103
CUMMING Harrison#745Junior Male0:18:55"8.1 " 17916
LEA Trevor#656Male 50+0:18:55"8.1 " 18012
BROWN Sean#74340-49 Male0:18:56"8.1 " 18123
DODD Jennifer#388Female 50+0:18:56"8.1 " 1821
FASKEN Ian#62740-49 Male0:18:57"8.1 " 18324
MURDOCH Taya#404Junior Female0:18:59"8.1 " 1849
SCOTT Hannah#405Junior Female0:19:00"8.1 " 18510
DARKER Sarah#344Senior Female0:19:00"8.1 " 18618
HOLUB Brittany#446Senior Female0:19:01"8.0 " 18719
GUPPY Sasha#462Junior Female0:19:03"8.0 " 18811
BERRY Angela#423Senior Female0:19:04"8.0 " 18920
O'DONOHUE Mark#684Male 50+0:19:04"8.0 " 19013
MC DONALD Kellie#425Senior Female0:19:06"8.0 " 19121
CURTIS Brad#73840-49 Male0:19:09"8.0 " 19225
TURNLEY Liam#678Junior Male0:19:11"8.0 " 19317
HALL Adriaan#83Senior Male0:19:13"8.0 " 194104
MACDONALD Warren#60140-49 Male0:19:13"8.0 " 19526
VERNON Zak#126Senior Male0:19:14"8.0 " 196105
STAFFORD Claire#301Senior Female0:19:14"8.0 " 19722
ADAMS Mark#78Senior Male0:19:15"7.9 " 198106
SAUNDERS Allan#728Male 50+0:19:15"7.9 " 19914
JAMES Alycia#469Senior Female0:19:17"7.9 " 20023
PRENDERGAST Damien#158Senior Male0:19:17"7.9 " 201107
FITZGERALD Amy#343Senior Female0:19:18"7.9 " 20224
STURGES Tim#68740-49 Male0:19:18"7.9 " 20327
GOWAN Natalie#327Senior Female0:19:19"7.9 " 20425
GUPPY Isaac#166Senior Male0:19:24"7.9 " 205108
MORRISON William#73940-49 Male0:19:25"7.9 " 20628
DODDS Janine#36140-49 Female0:19:26"7.9 " 2073
GRAYDEN Tom#91Senior Male0:19:27"7.9 " 208109
COKER Myles#31Senior Male0:19:27"7.9 " 209110
WILLIAMS Tommy#682Junior Male0:19:27"7.9 " 21018
BUCHANAN Kathryn#316Senior Female0:19:28"7.9 " 21126
WILLIAMSON Dameon#62940-49 Male0:19:29"7.9 " 21229
O'CONNELL Tony#61140-49 Male0:19:30"7.8 " 21330
SZEITLI Justine#433Senior Female0:19:31"7.8 " 21427
HADAWAY Emma#330Senior Female0:19:32"7.8 " 21528
ELKINS Ben#76Senior Male0:19:33"7.8 " 216111
HIBBLE Jenny#379Female 50+0:19:34"7.8 " 2172
RACE NUMBER Incorrect#663Male 50+0:19:38"7.8 " 21815
BURNS Sam#63Senior Male0:19:40"7.8 " 219112
ADAMS Simon#667Male 50+0:19:41"7.8 " 22016
ADNAM Sian#422Female 50+0:19:42"7.8 " 2213
BORN Christian#25Senior Male0:19:43"7.8 " 222113
EMERY Mick#654Male 50+0:19:43"7.8 " 22317
CANN Lara#302Senior Female0:19:45"7.7 " 22429
SUTHERLAND Michael#74940-49 Male0:19:45"7.7 " 22531
FYFFE Riley#674Junior Male0:19:45"7.7 " 22619
CARSON Anthony#132Senior Male0:19:46"7.7 " 227114
WILLIAMS Ian#62040-49 Male0:19:46"7.7 " 22832
HANNAGAN Jackson#732Junior Male0:19:47"7.7 " 22920
WATSON Angus#156Senior Male0:19:50"7.7 " 230115
HILL Jacob#167Senior Male0:19:51"7.7 " 231116
CREAN Peter#644Male 50+0:19:57"7.7 " 23218
DE CARLO Pier#657Male 50+0:19:57"7.7 " 23319
KENNEDY Karina#305Senior Female0:19:59"7.7 " 23430
TEMPLAR Natalie#403Junior Female0:20:00"7.6 " 23512
ZIMMERMAN Kirrily#315Senior Female0:20:02"7.6 " 23631
WATSON Bryce#59Senior Male0:20:02"7.6 " 237117
BROPHY Clare#371Female 50+0:20:05"7.6 " 2384
ATKINS Tom#92Senior Male0:20:07"7.6 " 239118
VANDERZWET Angus#695Junior Male0:20:07"7.6 " 24021
BROOKE Jason#94Senior Male0:20:11"7.6 " 241119
BENSTEAD David#650Male 50+0:20:15"7.6 " 24220
SUDBURY Eva#317Senior Female0:20:19"7.5 " 24332
HIGGINS Michael#80Senior Male0:20:20"7.5 " 244120
ARIANO Fabian#44Senior Male0:20:22"7.5 " 245121
POLLARD-VIRTUE Caleb#725Junior Male0:20:22"7.5 " 24622
TURNER Bridget#437Senior Female0:20:25"7.5 " 24733
STEPHENS Janice#372Female 50+0:20:25"7.5 " 2485
RUTLEY Aaron#86Senior Male0:20:26"7.5 " 249122
STAFFORD Rachel#35140-49 Female0:20:26"7.5 " 2504
YOUNG Lauren#323Senior Female0:20:28"7.5 " 25134
GIBBS Brett#60440-49 Male0:20:28"7.5 " 25233
BECK Aimee#332Senior Female0:20:32"7.5 " 25335
WILDES John#70640-49 Male0:20:35"7.4 " 25434
CHAMBERS Jacquie#418Senior Female0:20:35"7.4 " 25536
BEE Darcy#105Senior Male0:20:37"7.4 " 256123
WEINER Sophie#331Senior Female0:20:37"7.4 " 25737
GILES Michael#715Male 50+0:20:37"7.4 " 25821
WILLINGHAM Steve#164Senior Male0:20:38"7.4 " 259124
CHANDLER Mark#117Senior Male0:20:43"7.4 " 260125
CALLAGHAN Grant#63940-49 Male0:20:44"7.4 " 26135
HOGAN Krystal#457Senior Female0:20:45"7.4 " 26238
PHAN Tuong#98Senior Male0:20:47"7.4 " 263126
DWYER Paul#71640-49 Male0:20:49"7.3 " 26436
HUNT MP Greg#60340-49 Male0:20:50"7.3 " 26537
CHASTON Pete#697Male 50+0:20:51"7.3 " 26622
FLEISNER Paul#655Male 50+0:20:52"7.3 " 26723
LUCK Jarrod#61340-49 Male0:20:52"7.3 " 26838
O'SHANNESSY Peter#729Male 50+0:20:52"7.3 " 26924
MATTHEWS Robert#662Male 50+0:20:53"7.3 " 27025
CICCONE Daniel#740Junior Male0:20:55"7.3 " 27123
SKIDMORE Peter#641Male 50+0:20:56"7.3 " 27226
ALDERSON Allan#718Male 50+0:20:57"7.3 " 27327
FITZGERALD Rick#647Male 50+0:20:59"7.3 " 27428
STELZER Hermann#692Male 50+0:21:00"7.3 " 27529
SEELEY Emma#325Senior Female0:21:00"7.3 " 27639
BEHRE Michaela#312Senior Female0:21:06"7.3 " 27740
ANTHONY Michael#60640-49 Male0:21:07"7.2 " 27839
MANNING Simon#736Male 50+0:21:08"7.2 " 27930
WARING Colin#61740-49 Male0:21:09"7.2 " 28040
NICHOLSON Garry#652Male 50+0:21:10"7.2 " 28131
LAW Sonya#35440-49 Female0:21:10"7.2 " 2825
FITZSIMONS Andy#74640-49 Male0:21:11"7.2 " 28341
THOMAS Lucas#17Senior Male0:21:13"7.2 " 284127
ONLEY Samantha#411Senior Female0:21:13"7.2 " 28541
BRACHER Stephen#72040-49 Male0:21:15"7.2 " 28642
WRIGHT Anne#35340-49 Female0:21:16"7.2 " 2876
VAN DER HEYDEN Natalie#320Senior Female0:21:17"7.2 " 28842
WEBBER Neil#668Male 50+0:21:18"7.2 " 28932
BAXTER Virginia#44240-49 Female0:21:19"7.2 " 2907
SNELL Chelsea#401Junior Female0:21:22"7.2 " 29113
HOSKINGS Steven#18Senior Male0:21:23"7.2 " 292128
TAYOR Jonathon#95Senior Male0:21:23"7.2 " 293129
HOSKING Adrian#20Senior Male0:21:23"7.2 " 294130
LAMBERT B#171Senior Male0:21:25"7.1 " 295131
DWYER Deanne#43540-49 Female0:21:26"7.1 " 2968
SHEPPARD Sam#154Senior Male0:21:26"7.1 " 297132
DYNON Paul#63440-49 Male0:21:28"7.1 " 29843
BREMNER James#61Senior Male0:21:29"7.1 " 299133
LUKER Ben#118Senior Male0:21:30"7.1 " 300134
THOMSON Michael#39Senior Male0:21:32"7.1 " 301135
MANNING John#110Senior Male0:21:33"7.1 " 302136
TZIMOKAS Alexander#685Junior Male0:21:34"7.1 " 30324
HEFFER Kelly#308Senior Female0:21:38"7.1 " 30443
HOLLINS Jenny#35840-49 Female0:21:43"7.0 " 3059
JAMES Gideon#61040-49 Male0:21:44"7.0 " 30644
MARSHALL Sarah#35240-49 Female0:21:48"7.0 " 30710
BOURKE Chris#50Senior Male0:21:50"7.0 " 308137
TUOHEY Patrick#16Senior Male0:21:50"7.0 " 309138
MORGAN Abby#310Senior Female0:21:52"7.0 " 31044
BEE Zoe#424Junior Female0:21:53"7.0 " 31114
VIRTUE Melinda#44140-49 Female0:21:54"7.0 " 31211
BORN Tim#60840-49 Male0:21:56"7.0 " 31345
CULLEN Richard#61240-49 Male0:21:57"7.0 " 31446
BENSTEAD Christine#36240-49 Female0:22:07"6.9 " 31512
HILL Dean#60240-49 Male0:22:07"6.9 " 31647
HUNG Pui-Shan#348Senior Female0:22:07"6.9 " 31745
BROPHY David#646Male 50+0:22:07"6.9 " 31833
WRIGHT Philip#752Male 50+0:22:08"6.9 " 31934
SHERWIN Scott#97Senior Male0:22:11"6.9 " 320139
BONDARENKO Troy#64040-49 Male0:22:13"6.9 " 32148
COUSINS Richard#651Male 50+0:22:16"6.9 " 32235
TZIMOKAS Hannah#413Junior Female0:22:18"6.9 " 32315
VIRGO Samuel#41Senior Male0:22:22"6.8 " 324140
JOHNSTONE Felicity#36640-49 Female0:22:23"6.8 " 32513
SYME Michael#659Male 50+0:22:25"6.8 " 32636
MERTENS Jennifer#342Senior Female0:22:27"6.8 " 32746
TUFF Laura#436Senior Female0:22:28"6.8 " 32847
COBURN Charlotte#455Senior Female0:22:28"6.8 " 32948
HAYNE Diane#447Senior Female0:22:30"6.8 " 33049
CAPLE David#686Male 50+0:22:35"6.8 " 33137
BUICK Megan#36740-49 Female0:22:35"6.8 " 33214
WARE Matthew#70340-49 Male0:22:35"6.8 " 33349
MEAGHER Kerryn#449Senior Female0:22:37"6.8 " 33450
DITCHFIELD Kristina#35640-49 Female0:22:38"6.8 " 33515
VIRTUE Jacob#723Junior Male0:22:39"6.8 " 33625
WILLIAMS Estelle#438Senior Female0:22:40"6.7 " 33751
BLUNDY Bec#466Senior Female0:22:42"6.7 " 33852
BAXTER Brent#63640-49 Male0:22:48"6.7 " 33950
WEBBER Simone#35940-49 Female0:22:54"6.7 " 34016
JOHNSTONE Garry#721Male 50+0:22:56"6.7 " 34138
WILLIAMS Colleen#41540-49 Female0:23:00"6.7 " 34217
BRUSA Jo#389Female 50+0:23:03"6.6 " 3436
PICKLES Ali#321Senior Female0:23:09"6.6 " 34453
WATSON Tessa#458Junior Female0:23:10"6.6 " 34516
MARSHALL Polly#464Senior Female0:23:13"6.6 " 34654
ANDERSON Lisa#370Female 50+0:23:13"6.6 " 3477
PAYNE India#448Senior Female0:23:18"6.6 " 34855
PAYNE Lani#412Junior Female0:23:19"6.6 " 34917
DE VRIES Pieter#62140-49 Male0:23:28"6.5 " 35051
ORR Michelle#45240-49 Female0:23:30"6.5 " 35118
MACAFFER Susan#35040-49 Female0:23:30"6.5 " 35219
WATSON Richard#751Male 50+0:23:37"6.5 " 35339
BAUER Ronnie#645Male 50+0:23:44"6.4 " 35440
BONDARENKO Russel#670Male 50+0:23:44"6.4 " 35541
TRUMBLE Mungo#673Junior Male0:23:44"6.4 " 35626
WRIGHT Melanie#456Senior Female0:23:47"6.4 " 35756
DAVIE Steve#754Male 50+0:23:48"6.4 " 35842
PAYNE Kevin#62340-49 Male0:23:49"6.4 " 35952
MOWLAM Fleur#324Senior Female0:23:53"6.4 " 36057
HARDMAN Gill#381Female 50+0:23:54"6.4 " 3618
GREEN Amanda#328Senior Female0:23:54"6.4 " 36258
DALLINGER Brian#694Male 50+0:23:56"6.4 " 36343
HOWARD Lisa#46540-49 Female0:23:58"6.4 " 36420
LLOYD Greg#60540-49 Male0:23:59"6.4 " 36553
REYNOLDS Hayley#309Senior Female0:24:01"6.4 " 36659
BARO John#157Senior Male0:24:02"6.4 " 367141
PRIDHAM Alison#383Female 50+0:24:04"6.4 " 3689
CUTHBERTSON Winnie#340Senior Female0:24:13"6.3 " 36960
KREGTING Lance#60740-49 Male0:24:15"6.3 " 37054
SHERAR Louise#336Senior Female0:24:17"6.3 " 37161
MC DONALD Goroon#691Male 50+0:24:31"6.2 " 37244
GARDNER Megan#304Senior Female0:24:33"6.2 " 37362
PERRY Phillip#19Senior Male0:24:41"6.2 " 374142
PRATT Megan#313Senior Female0:24:41"6.2 " 37563
CONNELLY Noel#60940-49 Male0:24:42"6.2 " 37655
EVANS William#742Male 50+0:24:46"6.2 " 37745
LEA Edwina#322Senior Female0:24:47"6.2 " 37864
TOOHEY Lyn#391Female 50+0:24:59"6.1 " 37910
SPITERI Maverick#664Male 50+0:25:04"6.1 " 38046
FURTHORNE Craig#70440-49 Male0:25:08"6.1 " 38156
GRIFFITHS Karen#380Female 50+0:25:10"6.1 " 38211
OATS Nicolas#690Male 50+0:25:11"6.1 " 38347
DIAMOND Michelle#36040-49 Female0:25:14"6.1 " 38421
WILLIS Eddy#444Female 50+0:25:15"6.1 " 38512
MOULD Annie#303Senior Female0:25:23"6.0 " 38665
HILL Tania#34940-49 Female0:25:31"6.0 " 38722
LU Huy#129Senior Male0:25:33"6.0 " 388143
ANGLIM Bernard#755Male 50+0:25:41"6.0 " 38948
HICKMAN Brendan#700Male 50+0:25:46"5.9 " 39049
O'CONNELL Katherine#346Senior Female0:25:50"5.9 " 39166
TRESISE Rod#714Male 50+0:25:57"5.9 " 39250
VAUX Venise#427Female 50+0:25:59"5.9 " 39313
LEGGATT Luise#407Female 50+0:25:59"5.9 " 39414
HIGGINS Jacqui#306Senior Female0:26:04"5.9 " 39567
THOMAS Julie#426Female 50+0:26:08"5.9 " 39615
SCROGGIE Katie#314Senior Female0:26:09"5.9 " 39768
MCGENNISKEN Kerry#36440-49 Female0:26:11"5.8 " 39823
CARLYON Kerry#46140-49 Female0:26:13"5.8 " 39924
BLUNDY Peter#756Male 50+0:26:17"5.8 " 40051
HOSKING Robert#747Male 50+0:26:21"5.8 " 40152
TUDOR Cal#373Female 50+0:26:26"5.8 " 40216
FRASER Elizabeth#374Female 50+0:26:41"5.7 " 40317
HUTCHESSON Damian#61540-49 Male0:26:57"5.7 " 40457
SMITH Wendy#408Female 50+0:27:03"5.7 " 40518
CHAMBERS Ron#648Male 50+0:27:05"5.6 " 40653
BAILEY Annie#387Female 50+0:27:06"5.6 " 40719
DE CARLO Mary-Ann#382Female 50+0:27:07"5.6 " 40820
TRAPPETT Steve#73340-49 Male0:27:08"5.6 " 40958
SHAW Peter#665Male 50+0:27:09"5.6 " 41054
MCPHERSON Pauline#36340-49 Female0:27:11"5.6 " 41125
MORRIS Tony#705Male 50+0:27:34"5.6 " 41255
MURPHY Sean#717Male 50+0:27:48"5.5 " 41356
GOODE Tom#643Male 50+0:27:49"5.5 " 41457
BONDARENKO Angeline#390Female 50+0:27:54"5.5 " 41521
THOROGOOD Debbie#414Female 50+0:27:58"5.5 " 41622
CARTER Verena#347Senior Female0:28:00"5.5 " 41769
AXNICK Doug#671Male 50+0:28:04"5.5 " 41858
LAWRY Peter#653Male 50+0:28:13"5.4 " 41959
PRATT Faye#376Female 50+0:28:36"5.3 " 42023
LOCK Murray#698Male 50+0:29:08"5.3 " 42160
LACEY Angela#377Female 50+0:29:34"5.2 " 42224
HAYNE Sue#385Female 50+0:29:41"5.2 " 42325
BOURKE Gay#384Female 50+0:30:17"5.1 " 42426
THOM Robyn#392Female 50+0:30:22"5.0 " 42527
DOWNWARD Dylan#114Senior Male0:30:25"5.0 " 426144
CROKER Sally#36540-49 Female0:31:35"4.8 " 42726
SEWELL Jill#368Female 50+0:31:56"4.8 " 42828
HORROCKS Mark#722Male 50+0:32:15"4.7 " 42961
BOND Vivienne#393Female 50+0:32:33"4.7 " 43029
VAN SETERS Gayle#378Female 50+0:33:26"4.6 " 43130
TAYLOR Carol#430Female 50+0:37:00"4.1 " 43231
KONTOGOURIS Earlene#454Female 50+0:38:09"4.0 " 43332
JOHNSON Christine#44040-49 Female0:38:51"3.9 " 43427
KENT Ryan#111Senior Male0:39:59"3.8 " 435145
LANGER Sally#345Senior Female0:42:45"3.6 " 43670
BURNS Toyah#467Senior Female0:43:01"3.6 " 43771
SONOGAN Leah#468Senior Female0:43:08"3.5 " 43872